createdAt,value
2023-09-27T00:00:16.806Z,21.60
2023-09-27T00:02:43.388Z,21.60
2023-09-27T00:05:10.113Z,21.70
2023-09-27T00:07:40.032Z,21.60
2023-09-27T00:10:06.678Z,21.60
2023-09-27T00:12:33.224Z,21.60
2023-09-27T00:14:59.756Z,21.60
2023-09-27T00:17:26.344Z,21.60
2023-09-27T00:19:52.900Z,21.60
2023-09-27T00:22:19.413Z,21.60
2023-09-27T00:24:45.950Z,21.60
2023-09-27T00:27:12.483Z,21.60
2023-09-27T00:29:39.040Z,21.60
2023-09-27T00:32:05.650Z,21.60
2023-09-27T00:34:32.253Z,21.60
2023-09-27T00:36:58.789Z,21.60
2023-09-27T00:39:25.390Z,21.60
2023-09-27T00:41:51.926Z,21.60
2023-09-27T00:44:22.077Z,21.60
2023-09-27T00:46:48.653Z,21.60
2023-09-27T00:49:15.205Z,21.60
2023-09-27T00:51:41.767Z,21.60
2023-09-27T00:54:08.290Z,21.60
2023-09-27T00:56:34.849Z,21.60
2023-09-27T00:59:01.419Z,21.60
2023-09-27T01:01:28.019Z,21.50
2023-09-27T01:03:54.606Z,21.50
2023-09-27T01:06:21.163Z,21.50
2023-09-27T01:08:47.717Z,21.50
2023-09-27T01:11:14.313Z,21.50
2023-09-27T01:13:40.887Z,21.40
2023-09-27T01:16:07.405Z,21.50
2023-09-27T01:18:33.990Z,21.50
2023-09-27T01:21:00.536Z,21.50
2023-09-27T01:23:27.127Z,21.50
2023-09-27T01:25:53.775Z,21.40
2023-09-27T01:28:20.324Z,21.50
2023-09-27T01:30:46.869Z,21.40
2023-09-27T01:33:13.424Z,21.50
2023-09-27T01:35:40.102Z,21.50
2023-09-27T01:38:06.686Z,21.40
2023-09-27T01:40:33.310Z,21.50
2023-09-27T01:42:59.887Z,21.50
2023-09-27T01:45:26.451Z,21.50
2023-09-27T01:47:53.029Z,21.50
2023-09-27T01:50:19.626Z,21.50
2023-09-27T01:52:46.130Z,21.50
2023-09-27T01:55:12.649Z,21.50
2023-09-27T01:57:39.179Z,21.40
2023-09-27T02:00:05.721Z,21.40
2023-09-27T02:02:32.346Z,21.50
2023-09-27T02:04:59.005Z,21.50
2023-09-27T02:07:25.553Z,21.40
2023-09-27T02:09:52.097Z,21.50
2023-09-27T02:12:18.604Z,21.50
2023-09-27T02:14:45.140Z,21.50
2023-09-27T02:17:11.712Z,21.50
2023-09-27T02:19:38.305Z,21.40
2023-09-27T02:22:04.849Z,21.40
2023-09-27T02:24:31.359Z,21.50
2023-09-27T02:26:57.876Z,21.50
2023-09-27T02:29:24.446Z,21.50
2023-09-27T02:31:50.995Z,21.40
2023-09-27T02:34:17.518Z,21.50
2023-09-27T02:36:44.034Z,21.40
2023-09-27T02:39:10.601Z,21.50
2023-09-27T02:41:37.121Z,21.50
2023-09-27T02:44:03.633Z,21.50
2023-09-27T02:46:30.199Z,21.50
2023-09-27T02:48:56.938Z,21.40
2023-09-27T02:51:23.504Z,21.40
2023-09-27T02:53:50.037Z,21.50
2023-09-27T02:56:16.618Z,21.50
2023-09-27T02:58:43.149Z,21.50
2023-09-27T03:01:09.791Z,21.50
2023-09-27T03:03:36.467Z,21.50
2023-09-27T03:06:04.154Z,21.50
2023-09-27T03:08:30.745Z,21.50
2023-09-27T03:10:57.336Z,21.50
2023-09-27T03:13:23.873Z,21.30
2023-09-27T03:15:50.426Z,21.50
2023-09-27T03:18:16.991Z,21.50
2023-09-27T03:20:43.544Z,21.40
2023-09-27T03:23:10.122Z,21.50
2023-09-27T03:25:36.679Z,21.50
2023-09-27T03:28:03.227Z,21.50
2023-09-27T03:30:34.177Z,21.50
2023-09-27T03:33:00.711Z,21.50
2023-09-27T03:35:27.269Z,21.50
2023-09-27T03:37:53.984Z,21.40
2023-09-27T03:40:20.580Z,21.50
2023-09-27T03:42:47.214Z,21.40
2023-09-27T03:45:13.769Z,21.50
2023-09-27T03:47:40.399Z,21.50
2023-09-27T03:50:07.088Z,21.50
2023-09-27T03:52:33.658Z,21.50
2023-09-27T03:55:00.247Z,21.40
2023-09-27T03:57:26.785Z,21.40
2023-09-27T03:59:53.327Z,21.40
2023-09-27T04:02:19.912Z,21.40
2023-09-27T04:04:46.443Z,21.40
2023-09-27T04:07:12.951Z,21.40
2023-09-27T04:09:39.492Z,21.40
2023-09-27T04:12:06.046Z,21.40
2023-09-27T04:14:32.622Z,21.40
2023-09-27T04:16:59.234Z,21.40
2023-09-27T04:19:25.758Z,21.40
2023-09-27T04:21:52.273Z,21.40
2023-09-27T04:24:18.784Z,21.40
2023-09-27T04:26:45.285Z,21.40
2023-09-27T04:29:11.831Z,21.40
2023-09-27T04:31:38.400Z,21.40
2023-09-27T04:34:04.968Z,21.40
2023-09-27T04:36:31.501Z,21.40
2023-09-27T04:38:58.037Z,21.30
2023-09-27T04:41:24.653Z,21.40
2023-09-27T04:43:51.201Z,21.40
2023-09-27T04:46:17.981Z,21.40
2023-09-27T04:48:44.649Z,21.40
2023-09-27T04:51:11.194Z,21.40
2023-09-27T04:53:37.734Z,21.30
2023-09-27T04:56:04.290Z,21.40
2023-09-27T04:58:30.854Z,21.40
2023-09-27T05:00:57.417Z,21.40
2023-09-27T05:03:24.049Z,21.40
2023-09-27T05:05:50.860Z,21.40
2023-09-27T05:08:17.403Z,21.40
2023-09-27T05:10:43.984Z,21.30
2023-09-27T05:13:10.510Z,21.40
2023-09-27T05:15:37.081Z,21.40
2023-09-27T05:18:03.693Z,21.40
2023-09-27T05:20:30.307Z,21.40
2023-09-27T05:22:56.892Z,21.40
2023-09-27T05:25:23.407Z,21.40
2023-09-27T05:27:49.943Z,21.40
2023-09-27T05:30:16.472Z,21.40
2023-09-27T05:32:43.097Z,21.30
2023-09-27T05:35:09.722Z,21.30
2023-09-27T05:37:36.293Z,21.30
2023-09-27T05:40:02.811Z,21.30
2023-09-27T05:42:29.332Z,21.30
2023-09-27T05:44:55.852Z,21.30
2023-09-27T05:47:22.468Z,21.30
2023-09-27T05:49:49.016Z,21.30
2023-09-27T05:52:15.560Z,21.30
2023-09-27T05:54:42.078Z,21.20
2023-09-27T05:57:08.623Z,21.30
2023-09-27T05:59:35.189Z,21.30
2023-09-27T06:02:01.840Z,21.30
2023-09-27T06:04:28.410Z,21.30
2023-09-27T06:06:54.992Z,21.30
2023-09-27T06:09:21.820Z,21.30
2023-09-27T06:11:48.975Z,21.30
2023-09-27T06:14:15.525Z,21.30
2023-09-27T06:16:42.086Z,21.30
2023-09-27T06:19:08.662Z,21.30
2023-09-27T06:21:35.234Z,21.30
2023-09-27T06:24:01.806Z,21.30
2023-09-27T06:26:28.588Z,21.30
2023-09-27T06:28:55.472Z,21.30
2023-09-27T06:31:22.521Z,21.30
2023-09-27T06:33:49.327Z,21.30
2023-09-27T06:36:15.843Z,21.30
2023-09-27T06:38:46.326Z,21.30
2023-09-27T06:41:12.911Z,21.30
2023-09-27T06:43:39.451Z,21.30
2023-09-27T06:46:05.995Z,21.40
2023-09-27T06:48:34.508Z,21.40
2023-09-27T06:51:01.075Z,21.40
2023-09-27T06:53:31.300Z,21.30
2023-09-27T06:56:00.047Z,21.40
2023-09-27T06:58:26.623Z,21.30
2023-09-27T07:00:53.242Z,21.40
2023-09-27T07:03:19.913Z,21.40
2023-09-27T07:05:46.466Z,21.30
2023-09-27T07:08:13.028Z,21.40
2023-09-27T07:10:39.578Z,21.30
2023-09-27T07:13:06.097Z,21.40
2023-09-27T07:15:34.325Z,21.40
2023-09-27T07:18:00.931Z,21.30
2023-09-27T07:20:27.573Z,21.30
2023-09-27T07:22:54.114Z,21.30
2023-09-27T07:25:20.690Z,21.30
2023-09-27T07:27:47.225Z,21.30
2023-09-27T07:30:13.793Z,21.30
2023-09-27T07:32:40.420Z,21.40
2023-09-27T07:35:07.111Z,21.40
2023-09-27T07:37:34.344Z,21.40
2023-09-27T07:40:00.877Z,21.30
2023-09-27T07:42:27.407Z,21.30
2023-09-27T07:44:53.946Z,21.30
2023-09-27T07:47:20.491Z,21.30
2023-09-27T07:49:47.072Z,21.40
2023-09-27T07:52:13.586Z,21.40
2023-09-27T07:54:40.182Z,21.40
2023-09-27T07:57:06.876Z,21.40
2023-09-27T07:59:33.460Z,21.30
2023-09-27T08:02:00.165Z,21.30
2023-09-27T08:04:26.872Z,21.40
2023-09-27T08:06:53.425Z,21.40
2023-09-27T08:09:34.932Z,21.40
2023-09-27T08:12:05.705Z,21.40
2023-09-27T08:14:32.281Z,21.40
2023-09-27T08:16:58.945Z,21.40
2023-09-27T08:19:25.486Z,21.40
2023-09-27T08:21:52.016Z,21.40
2023-09-27T08:24:18.565Z,21.40
2023-09-27T08:26:47.132Z,21.40
2023-09-27T08:29:13.924Z,21.40
2023-09-27T08:31:40.485Z,21.40
2023-09-27T08:34:07.006Z,21.40
2023-09-27T08:36:33.560Z,21.40
2023-09-27T08:39:00.241Z,21.40
2023-09-27T08:41:26.980Z,21.50
2023-09-27T08:43:53.521Z,21.40
2023-09-27T08:46:20.118Z,21.40
2023-09-27T08:48:46.660Z,21.50
2023-09-27T08:51:13.197Z,21.50
2023-09-27T08:53:39.754Z,21.50
2023-09-27T08:56:06.293Z,21.50
2023-09-27T08:58:32.827Z,21.50
2023-09-27T09:00:59.368Z,21.40
2023-09-27T09:03:26.155Z,21.40
2023-09-27T09:05:52.866Z,21.50
2023-09-27T09:08:29.603Z,21.50
2023-09-27T09:11:00.254Z,21.50
2023-09-27T09:13:26.777Z,21.50
2023-09-27T09:15:58.504Z,21.50
2023-09-27T09:18:25.151Z,21.50
2023-09-27T09:20:51.819Z,21.50
2023-09-27T09:23:18.405Z,21.60
2023-09-27T09:25:45.005Z,21.60
2023-09-27T09:28:11.648Z,21.50
2023-09-27T09:30:38.164Z,21.50
2023-09-27T09:33:04.832Z,21.50
2023-09-27T09:35:34.456Z,21.50
2023-09-27T09:38:01.029Z,21.50
2023-09-27T09:40:27.555Z,21.50
2023-09-27T09:42:54.076Z,21.50
2023-09-27T09:45:20.601Z,21.50
2023-09-27T09:47:47.157Z,21.50
2023-09-27T09:50:13.885Z,21.60
2023-09-27T09:52:40.700Z,21.60
2023-09-27T09:55:22.642Z,21.60
2023-09-27T09:57:57.055Z,21.60
2023-09-27T10:00:23.709Z,21.60
2023-09-27T10:02:50.480Z,21.60
2023-09-27T10:05:17.192Z,21.70
2023-09-27T10:07:43.770Z,21.60
2023-09-27T10:10:10.325Z,21.70
2023-09-27T10:12:36.856Z,21.60
2023-09-27T10:15:03.413Z,21.70
2023-09-27T10:17:31.205Z,21.70
2023-09-27T10:19:58.506Z,21.70
2023-09-27T10:22:25.018Z,21.70
2023-09-27T10:24:51.576Z,21.70
2023-09-27T10:27:18.105Z,21.70
2023-09-27T10:29:44.663Z,21.70
2023-09-27T10:32:11.247Z,21.70
2023-09-27T10:34:37.793Z,21.70
2023-09-27T10:37:18.689Z,21.80
2023-09-27T10:39:46.347Z,21.70
2023-09-27T10:42:12.950Z,21.80
2023-09-27T10:44:39.505Z,21.80
2023-09-27T10:47:06.028Z,21.90
2023-09-27T10:49:32.546Z,22.00
2023-09-27T10:52:07.226Z,22.10
2023-09-27T10:54:34.036Z,22.10
2023-09-27T10:57:00.624Z,22.20
2023-09-27T10:59:27.240Z,22.20
2023-09-27T11:01:53.817Z,22.20
2023-09-27T11:04:20.413Z,22.10
2023-09-27T11:06:46.972Z,22.20
2023-09-27T11:09:13.511Z,22.20
2023-09-27T11:11:40.064Z,22.20
2023-09-27T11:14:06.616Z,22.20
2023-09-27T11:16:33.180Z,22.20
2023-09-27T11:18:59.743Z,22.20
2023-09-27T11:21:26.346Z,22.20
2023-09-27T11:23:53.150Z,22.20
2023-09-27T11:26:19.995Z,22.10
2023-09-27T11:28:46.516Z,22.10
2023-09-27T11:31:13.058Z,22.10
2023-09-27T11:33:39.591Z,22.10
2023-09-27T11:36:06.127Z,22.10
2023-09-27T11:38:32.737Z,22.20
2023-09-27T11:40:59.282Z,22.10
2023-09-27T11:43:25.795Z,22.10
2023-09-27T11:45:52.389Z,22.10
2023-09-27T11:48:22.807Z,22.10
2023-09-27T11:50:49.422Z,22.20
2023-09-27T11:53:16.059Z,22.10
2023-09-27T11:55:42.644Z,22.10
2023-09-27T11:58:10.628Z,22.20
2023-09-27T12:00:37.188Z,22.20
2023-09-27T12:03:03.821Z,22.20
2023-09-27T12:05:30.598Z,22.20
2023-09-27T12:07:57.308Z,22.20
2023-09-27T12:10:23.879Z,22.20
2023-09-27T12:12:50.458Z,22.20
2023-09-27T12:15:17.038Z,22.20
2023-09-27T12:17:43.738Z,22.20
2023-09-27T12:20:22.226Z,22.10
2023-09-27T12:22:54.012Z,22.20
2023-09-27T12:25:20.535Z,22.20
2023-09-27T12:27:47.044Z,22.20
2023-09-27T12:30:13.550Z,22.20
2023-09-27T12:32:40.136Z,22.20
2023-09-27T12:35:06.701Z,22.20
2023-09-27T12:37:33.218Z,22.20
2023-09-27T12:39:59.729Z,22.30
2023-09-27T12:42:26.274Z,22.20
2023-09-27T12:44:52.829Z,22.20
2023-09-27T12:47:19.422Z,22.30
2023-09-27T12:49:45.999Z,22.20
2023-09-27T12:52:12.540Z,22.20
2023-09-27T12:54:39.168Z,22.30
2023-09-27T12:57:05.705Z,22.30
2023-09-27T12:59:32.256Z,22.30
2023-09-27T13:01:58.869Z,22.30
2023-09-27T13:04:25.472Z,22.30
2023-09-27T13:06:52.076Z,22.30
2023-09-27T13:09:18.728Z,22.30
2023-09-27T13:11:45.363Z,22.20
2023-09-27T13:14:12.123Z,22.30
2023-09-27T13:16:38.670Z,22.30
2023-09-27T13:19:05.197Z,22.30
2023-09-27T13:21:31.711Z,22.30
2023-09-27T13:23:58.248Z,22.30
2023-09-27T13:26:24.873Z,22.30
2023-09-27T13:28:51.561Z,22.30
2023-09-27T13:31:18.316Z,22.30
2023-09-27T13:33:49.032Z,22.30
2023-09-27T13:36:25.896Z,22.30
2023-09-27T13:38:52.740Z,22.30
2023-09-27T13:41:19.736Z,22.30
2023-09-27T13:43:46.429Z,22.40
2023-09-27T13:46:13.036Z,22.30
2023-09-27T13:48:39.682Z,22.30
2023-09-27T13:51:06.321Z,22.40
2023-09-27T13:53:32.873Z,22.40
2023-09-27T13:55:59.477Z,22.40
2023-09-27T13:58:26.031Z,22.40
2023-09-27T14:00:52.580Z,22.40
2023-09-27T14:03:19.153Z,22.40
2023-09-27T14:05:45.831Z,22.40
2023-09-27T14:08:12.749Z,22.40
2023-09-27T14:10:39.597Z,22.40
2023-09-27T14:13:06.128Z,22.40
2023-09-27T14:15:32.836Z,22.40
2023-09-27T14:17:59.451Z,22.40
2023-09-27T14:20:26.125Z,22.40
2023-09-27T14:22:52.715Z,22.40
2023-09-27T14:25:19.253Z,22.40
2023-09-27T14:27:45.819Z,22.40
2023-09-27T14:30:12.395Z,22.40
2023-09-27T14:32:39.058Z,22.30
2023-09-27T14:35:10.755Z,22.40
2023-09-27T14:37:37.316Z,22.40
2023-09-27T14:40:03.899Z,22.40
2023-09-27T14:42:30.450Z,22.40
2023-09-27T14:44:56.981Z,22.40
2023-09-27T14:47:23.502Z,22.30
2023-09-27T14:49:50.060Z,22.40
2023-09-27T14:52:16.679Z,22.40
2023-09-27T14:54:43.210Z,22.50
2023-09-27T14:57:09.772Z,22.40
2023-09-27T14:59:36.282Z,22.40
2023-09-27T15:02:02.910Z,22.40
2023-09-27T15:04:29.560Z,22.50
2023-09-27T15:06:56.237Z,22.50
2023-09-27T15:09:22.784Z,22.50
2023-09-27T15:11:49.322Z,22.50
2023-09-27T15:14:15.836Z,22.50
2023-09-27T15:16:42.496Z,22.50
2023-09-27T15:19:09.064Z,22.50
2023-09-27T15:21:35.621Z,22.50
2023-09-27T15:24:02.155Z,22.50
2023-09-27T15:26:28.685Z,22.50
2023-09-27T15:28:55.245Z,22.50
2023-09-27T15:31:21.851Z,22.50
2023-09-27T15:33:48.408Z,22.50
2023-09-27T15:36:14.933Z,22.50
2023-09-27T15:38:41.454Z,22.50
2023-09-27T15:41:07.991Z,22.50
2023-09-27T15:43:34.548Z,22.50
2023-09-27T15:46:01.224Z,22.50
2023-09-27T15:48:27.812Z,22.50
2023-09-27T15:50:54.355Z,22.50
2023-09-27T15:53:20.858Z,22.50
2023-09-27T15:55:47.407Z,22.50
2023-09-27T15:58:13.933Z,22.50
2023-09-27T16:00:40.454Z,22.50
2023-09-27T16:03:07.117Z,22.50
2023-09-27T16:05:33.753Z,22.40
2023-09-27T16:08:00.374Z,22.50
2023-09-27T16:10:26.998Z,22.50
2023-09-27T16:12:53.613Z,22.60
2023-09-27T16:15:20.159Z,22.50
2023-09-27T16:17:46.784Z,22.50
2023-09-27T16:20:13.302Z,22.50
2023-09-27T16:22:40.202Z,22.50
2023-09-27T16:25:06.831Z,22.60
2023-09-27T16:27:33.373Z,22.50
2023-09-27T16:29:59.968Z,22.50
2023-09-27T16:32:27.177Z,22.60
2023-09-27T16:34:53.888Z,22.50
2023-09-27T16:37:20.516Z,22.60
2023-09-27T16:39:47.036Z,22.50
2023-09-27T16:42:13.587Z,22.60
2023-09-27T16:44:40.114Z,22.50
2023-09-27T16:47:06.741Z,22.50
2023-09-27T16:49:33.344Z,22.50
2023-09-27T16:51:59.868Z,22.50
2023-09-27T16:54:26.437Z,22.60
2023-09-27T16:56:52.977Z,22.50
2023-09-27T16:59:19.545Z,22.50
2023-09-27T17:01:46.932Z,22.50
2023-09-27T17:04:13.544Z,22.50
2023-09-27T17:06:40.069Z,22.50
2023-09-27T17:09:06.616Z,22.50
2023-09-27T17:11:33.134Z,22.50
2023-09-27T17:13:59.691Z,22.50
2023-09-27T17:16:26.323Z,22.50
2023-09-27T17:18:52.930Z,22.50
2023-09-27T17:21:19.430Z,22.50
2023-09-27T17:23:46.044Z,22.50
2023-09-27T17:26:12.565Z,22.50
2023-09-27T17:28:39.136Z,22.50
2023-09-27T17:31:05.735Z,22.30
2023-09-27T17:33:32.430Z,22.50
2023-09-27T17:35:59.045Z,22.50
2023-09-27T17:38:25.599Z,22.50
2023-09-27T17:40:52.161Z,22.50
2023-09-27T17:43:18.697Z,22.50
2023-09-27T17:45:45.280Z,22.40
2023-09-27T17:48:11.810Z,22.50
2023-09-27T17:50:38.323Z,22.40
2023-09-27T17:53:04.843Z,22.40
2023-09-27T17:55:31.354Z,22.40
2023-09-27T17:57:57.913Z,22.40
2023-09-27T18:00:24.427Z,22.40
2023-09-27T18:02:51.210Z,22.40
2023-09-27T18:05:17.850Z,22.40
2023-09-27T18:07:44.418Z,22.40
2023-09-27T18:10:11.009Z,22.40
2023-09-27T18:12:37.545Z,22.40
2023-09-27T18:15:13.341Z,22.40
2023-09-27T18:17:48.426Z,22.30
2023-09-27T18:20:15.002Z,22.40
2023-09-27T18:22:41.589Z,22.40
2023-09-27T18:25:08.149Z,22.30
2023-09-27T18:27:34.676Z,22.40
2023-09-27T18:30:02.413Z,22.40
2023-09-27T18:32:29.230Z,22.30
2023-09-27T18:34:55.841Z,22.30
2023-09-27T18:37:22.394Z,22.30
2023-09-27T18:39:48.938Z,22.30
2023-09-27T18:42:17.201Z,22.30
2023-09-27T18:44:43.831Z,22.30
2023-09-27T18:47:10.487Z,22.30
2023-09-27T18:49:37.244Z,22.30
2023-09-27T18:52:03.840Z,22.30
2023-09-27T18:54:30.358Z,22.20
2023-09-27T18:56:56.889Z,22.30
2023-09-27T18:59:23.430Z,22.20
2023-09-27T19:01:49.987Z,22.20
2023-09-27T19:04:16.599Z,22.20
2023-09-27T19:06:43.141Z,22.20
2023-09-27T19:09:09.664Z,22.20
2023-09-27T19:11:37.208Z,22.20
2023-09-27T19:14:03.948Z,22.20
2023-09-27T19:16:30.573Z,22.20
2023-09-27T19:18:57.107Z,22.10
2023-09-27T19:21:23.645Z,22.10
2023-09-27T19:23:50.173Z,22.10
2023-09-27T19:26:16.724Z,22.10
2023-09-27T19:28:43.272Z,22.10
2023-09-27T19:31:09.961Z,22.00
2023-09-27T19:33:36.554Z,22.10
2023-09-27T19:36:03.090Z,22.10
2023-09-27T19:38:35.058Z,22.10
2023-09-27T19:41:01.675Z,22.10
2023-09-27T19:43:28.337Z,22.10
2023-09-27T19:45:59.036Z,22.10
2023-09-27T19:48:25.573Z,22.10
2023-09-27T19:50:52.142Z,22.10
2023-09-27T19:53:18.706Z,22.00
2023-09-27T19:55:45.257Z,22.10
2023-09-27T19:58:11.781Z,22.10
2023-09-27T20:00:38.310Z,22.10
2023-09-27T20:03:04.876Z,22.10
2023-09-27T20:05:31.415Z,22.10
2023-09-27T20:07:59.029Z,22.10
2023-09-27T20:10:25.576Z,22.10
2023-09-27T20:12:52.098Z,22.10
2023-09-27T20:15:18.620Z,22.10
2023-09-27T20:17:45.179Z,22.10
2023-09-27T20:20:11.734Z,22.10
2023-09-27T20:22:38.374Z,22.00
2023-09-27T20:25:04.946Z,22.00
2023-09-27T20:27:31.550Z,22.10
2023-09-27T20:29:58.074Z,22.00
2023-09-27T20:32:24.706Z,22.00
2023-09-27T20:34:51.686Z,22.10
2023-09-27T20:37:18.489Z,22.20
2023-09-27T20:39:45.021Z,22.00
2023-09-27T20:42:11.611Z,22.00
2023-09-27T20:44:38.106Z,22.00
2023-09-27T20:47:04.700Z,22.00
2023-09-27T20:49:31.234Z,22.00
2023-09-27T20:51:57.792Z,22.00
2023-09-27T20:54:24.315Z,22.00
2023-09-27T20:56:50.856Z,22.00
2023-09-27T20:59:17.456Z,22.00
2023-09-27T21:01:44.071Z,22.00
2023-09-27T21:04:10.608Z,22.00
2023-09-27T21:06:37.142Z,22.00
2023-09-27T21:09:03.676Z,22.00
2023-09-27T21:11:30.212Z,22.00
2023-09-27T21:13:56.832Z,22.00
2023-09-27T21:16:23.430Z,22.00
2023-09-27T21:18:50.024Z,22.00
2023-09-27T21:21:16.528Z,21.90
2023-09-27T21:23:43.019Z,22.00
2023-09-27T21:26:09.578Z,22.00
2023-09-27T21:28:36.200Z,22.00
2023-09-27T21:31:02.783Z,22.00
2023-09-27T21:33:29.326Z,22.00
2023-09-27T21:35:55.865Z,22.00
2023-09-27T21:38:22.389Z,22.00
2023-09-27T21:40:48.966Z,22.00
2023-09-27T21:43:15.590Z,22.00
2023-09-27T21:45:47.147Z,21.90
2023-09-27T21:48:13.696Z,22.00
2023-09-27T21:50:40.238Z,22.00
2023-09-27T21:53:06.852Z,22.00
2023-09-27T21:55:33.462Z,22.00
2023-09-27T21:58:00.003Z,21.90
2023-09-27T22:00:26.524Z,21.90
2023-09-27T22:02:53.127Z,21.90
2023-09-27T22:05:19.664Z,22.00
2023-09-27T22:07:46.205Z,22.00
2023-09-27T22:10:12.773Z,21.80
2023-09-27T22:12:39.299Z,21.90
2023-09-27T22:15:05.821Z,21.90
2023-09-27T22:17:32.368Z,22.00
2023-09-27T22:19:59.742Z,22.00
2023-09-27T22:22:27.668Z,21.90
2023-09-27T22:24:54.334Z,21.90
2023-09-27T22:27:20.877Z,21.90
2023-09-27T22:29:47.394Z,22.00
2023-09-27T22:32:14.023Z,22.00
2023-09-27T22:34:40.665Z,21.90
2023-09-27T22:37:07.252Z,21.90
2023-09-27T22:39:33.766Z,21.90
2023-09-27T22:42:00.294Z,21.90
2023-09-27T22:44:26.816Z,22.00
2023-09-27T22:46:53.498Z,21.90
2023-09-27T22:49:20.157Z,21.90
2023-09-27T22:51:46.679Z,21.90
2023-09-27T22:54:17.277Z,21.90
2023-09-27T22:56:43.802Z,21.90
2023-09-27T22:59:10.374Z,21.90
2023-09-27T23:01:37.022Z,21.90
2023-09-27T23:04:03.572Z,21.90
2023-09-27T23:06:30.087Z,22.00
2023-09-27T23:08:56.604Z,22.00
2023-09-27T23:11:23.123Z,21.80
2023-09-27T23:13:49.740Z,21.90
2023-09-27T23:16:16.324Z,21.90
2023-09-27T23:18:42.867Z,21.90
2023-09-27T23:21:09.396Z,21.90
2023-09-27T23:23:35.921Z,21.90
2023-09-27T23:26:02.473Z,21.90
2023-09-27T23:28:29.149Z,21.90
2023-09-27T23:30:55.742Z,21.90
2023-09-27T23:33:22.272Z,21.90
2023-09-27T23:35:48.792Z,21.90
2023-09-27T23:38:15.316Z,21.90
2023-09-27T23:40:41.861Z,21.90
2023-09-27T23:43:08.430Z,21.90
2023-09-27T23:45:34.954Z,21.80
2023-09-27T23:48:01.528Z,21.90
2023-09-27T23:50:28.093Z,22.00
2023-09-27T23:52:54.640Z,21.90
2023-09-27T23:55:21.186Z,21.90
2023-09-27T23:57:47.733Z,21.90
